RBF weather

Big Bear City Airport
Big Bear, California, United States

Public forecast

Using degrees Fahrenheit for public forecast. Weather courtesy of forecast.io.

Current aviation weather report (METAR) for Big Bear City Airport

Retrieved UTC (0 seconds ago):

Closest aviation forecast (TAF) to Big Bear City Airport

Closest forecast is San Bernardino International Airport, 21.4 nm (39.6 km) WSW. Retrieved 2019/10/18 12:22 UTC (4 minutes ago):

TAF KSBD 181120Z 1812/1912 VRB04KT P6SM BKN019 FM181400 VRB04KT P6SM SCT025 FM182100 26009KT P6SM SKC FM190300 VRB04KT P6SM SKC